WEATHER DATA

TODAY
Time Temp. Dewp. Hum. Wind dir Wind speed Wind gust Bar. 1h Prec. 24h Prec.
00:00 13.7 7.7 67 218 0.6 1.7 1026.4 0.0000 0.0000
00:20 13.5 7.7 68 211 0.6 1.7 1026.4 0.0000 0.0000
00:30 13.4 7.6 68 188 0.3 1.1 1026.4 0.0000 0.0000
00:40 13.3 7.7 69 215 0.3 1.1 1026.3 0.0000 0.0000
00:50 13.2 7.6 69 230 0.6 1.4 1026.2 0.0000 0.0000
01:01 13.1 7.5 69 233 0.8 2.8 1026.3 0.0000 0.0000
01:11 12.9 7.4 69 230 0.8 1.7 1026.3 0.0000 0.0000
01:20 12.9 7.1 68 226 1.1 3.1 1026.3 0.0000 0.0000
01:41 12.7 7.2 69 228 0.6 1.9 1026.4 0.0000 0.0000
01:51 12.7 7.4 70 230 0.8 2.5 1026.4 0.0000 0.0000
02:01 12.6 7.3 70 225 0.8 3.1 1026.4 0.0000 0.0000
02:12 12.6 7.5 71 225 0.6 1.9 1026.5 0.0000 0.0000
02:21 12.5 7.4 71 210 0.6 1.4 1026.2 0.0000 0.0000
02:31 12.5 7.4 71 225 0.8 2.2 1026.4 0.0000 0.0000
02:42 12.4 7.3 71 227 0.6 2.2 1026.4 0.0000 0.0000
02:52 12.3 7.2 71 227 0.6 1.9 1026.3 0.0000 0.0000
03:02 12.2 7.3 72 233 0.8 2.2 1026.4 0.0000 0.0000
03:11 12.2 7.3 72 237 0.8 2.2 1026.3 0.0000 0.0000
03:22 12.1 7.2 72 221 0.8 2.8 1026.4 0.0000 0.0000
03:32 12.1 7.2 72 228 1.4 3.3 1026.4 0.0000 0.0000
03:42 12 7.1 72 240 1.1 2.5 1026.3 0.0000 0.0000
03:52 11.9 7 72 237 0.8 2.5 1026.2 0.0000 0.0000
04:03 11.9 7 72 232 0.8 2.2 1026.3 0.0000 0.0000
04:12 11.9 7.2 73 228 0.6 1.4 1026.3 0.0000 0.0000
04:22 12 7.3 73 230 0.8 2.5 1026.3 0.0000 0.0000
04:33 12.1 7.2 72 240 0.8 2.2 1026.4 0.0000 0.0000
04:43 12.1 7.2 72 222 0.8 2.2 1026.2 0.0000 0.0000
04:53 12.1 7.2 72 231 0.8 2.2 1026.2 0.0000 0.0000
05:03 12.2 7.3 72 225 0.8 2.2 1026.3 0.0000 0.0000
05:14 12.2 7.5 73 229 0.8 3.1 1026.3 0.0000 0.0000
05:23 12.2 7.5 73 225 1.1 2.8 1026.5 0.0000 0.0000
05:33 12.2 7.5 73 226 1.1 3.1 1026.2 0.0000 0.0000
05:43 12.1 7.4 73 231 1.1 3.1 1026.3 0.0000 0.0000
05:54 12.1 7.4 73 225 1.1 5.8 1026.2 0.0000 0.0000
06:04 12 7.3 73 233 1.1 2.5 1026.2 0.0000 0.0000
06:14 12 7.3 73 227 1.1 3.6 1026.3 0.0000 0.0000
06:24 11.9 7.2 73 239 1.4 2.8 1026.3 0.0000 0.0000
06:34 11.9 7.2 73 237 1.1 2.8 1026.2 0.0000 0.0000
06:44 11.9 7.2 73 227 1.4 3.6 1026.2 0.0000 0.0000
06:54 11.9 7.2 73 230 1.4 3.1 1026.3 0.0000 0.0000
07:04 12 7.3 73 232 1.4 2.8 1026.3 0.0000 0.0000
07:14 12 7.3 73 231 1.4 3.1 1026.3 0.0000 0.0000
07:24 12.1 7.4 73 234 1.4 4.2 1026.2 0.0000 0.0000
07:35 12.1 7.2 72 235 1.4 3.6 1026.3 0.0000 0.0000
07:46 12.1 7.2 72 227 1.1 2.8 1026.3 0.0000 0.0000
07:55 12.1 7.8 75 232 1.4 3.9 1026 0.0000 0.0000
08:05 12 7.9 76 231 1.4 4.4 1026.2 0.0000 0.0000
08:16 12 7.9 76 229 1.4 3.9 1026.2 0.0000 0.0000
08:26 11.9 7.8 76 241 1.1 2.8 1026.3 0.0000 0.0000
08:36 12 7.9 76 229 1.4 3.9 1026.3 0.0000 0.0000
08:46 12 7.9 76 236 1.9 5.6 1026.3 0.0000 0.0000
08:55 12.1 7.8 75 239 1.7 5 1026.4 0.0000 0.0000
09:06 12.1 8 76 239 1.4 3.3 1026.5 0.0000 0.0000
09:16 12.1 8 76 237 1.7 5.8 1026.4 0.0000 0.0000
09:26 12.1 8.2 77 239 1.4 3.6 1026.4 0.0000 0.0000
09:37 12.1 8.2 77 237 1.1 3.1 1026.4 0.0000 0.0000
09:46 12.2 8.3 77 228 1.4 2.8 1026.3 0.0000 0.0000
09:56 12.2 8.3 77 238 1.7 5.8 1026.3 0.0000 0.0000
10:07 12.3 8.4 77 225 1.1 4.4 1026.3 0.0000 0.0000
10:17 12.4 8.7 78 240 0.8 3.1 1026.3 0.0000 0.0000
10:26 12.5 8.8 78 234 1.4 2.8 1026.2 0.0000 0.0000
10:37 12.7 8.8 77 229 1.1 2.8 1026.2 0.0000 0.0000
10:47 12.8 8.9 77 239 1.9 4.4 1026.2 0.0000 0.0000
10:57 13 9.1 77 238 1.4 3.1 1026.2 0.0000 0.0000
11:07 13.2 9.3 77 233 1.7 5 1026 0.0000 0.0000
11:17 13.4 9.5 77 236 1.4 3.9 1026.1 0.0000 0.0000
11:27 13.6 9.5 76 237 1.4 3.9 1026.1 0.0000 0.0000
11:37 13.9 9.5 75 232 1.7 5.3 1026.1 0.0000 0.0000
11:47 14.1 9.5 74 243 1.9 4.7 1026 0.0000 0.0000
11:58 14.3 9.7 74 235 1.4 3.6 1025.9 0.0000 0.0000
12:07 14.4 9.8 74 231 1.7 3.3 1026 0.0000 0.0000
12:17 14.6 9.8 73 235 1.9 5 1026.1 0.0000 0.0000
12:28 14.6 9.8 73 229 1.7 5.3 1026 0.0000 0.0000
12:38 14.7 9.9 73 237 2.2 5.6 1026 0.0000 0.0000
12:48 14.7 9.9 73 239 1.9 4.2 1026 0.0000 0.0000
12:58 14.7 9.7 72 235 1.4 3.3 1025.9 0.0000 0.0000
13:08 15.1 9.7 70 237 1.7 4.2 1025.9 0.0000 0.0000
13:18 15.4 9.7 69 239 1.9 4.4 1025.8 0.0000 0.0000
13:28 16.1 10 67 238 2.2 5.8 1025.7 0.0000 0.0000
13:39 16.5 9.9 65 236 2.2 5.8 1025.6 0.0000 0.0000
13:49 16.8 9 60 234 1.9 5.3 1025.7 0.0000 0.0000
13:58 16.7 9.2 61 243 1.9 4.7 1025.6 0.0000 0.0000
14:08 16.7 8.4 58 252 2.2 5.6 1025.5 0.0000 0.0000
14:19 17.1 8.8 58 239 1.9 5.8 1025.5 0.0000 0.0000
14:29 17.1 9 59 246 2.2 5 1025.8 0.0000 0.0000
14:38 16.7 8.9 60 249 2.2 5.6 1025.7 0.0000 0.0000
14:47 16.5 9 61 250 1.7 6.4 1025.8 0.0000 0.0000
14:57 16.4 8.6 60 249 1.9 5 1025.7 0.0000 0.0000
15:07 16.3 8.5 60 249 1.9 4.4 1025.6 0.0000 0.0000
15:18 16.3 8.8 61 259 1.4 4.2 1025.4 0.0000 0.0000
15:28 16.6 9.3 62 246 1.4 3.9 1025.3 0.0000 0.0000
15:37 16.8 9.2 61 244 1.7 5.3 1025.3 0.0000 0.0000
15:48 16.8 9 60 239 1.7 4.2 1025.6 0.0000 0.0000
15:58 16.6 9.1 61 241 1.9 4.2 1025.7 0.0000 0.0000
16:08 16.5 9 61 246 1.7 4.2 1025.6 0.0000 0.0000
16:18 16.4 9.1 62 239 1.4 5.3 1025.7 0.0000 0.0000
16:23 16.4 9.3 63 234 1.1 3.1 1025.6 0.0000 0.0000
16:33 16.3 9 62 245 1.1 2.8 1025.6 0.0000 0.0000
16:42 16.3 9.3 63 239 1.4 3.3 1025.5 0.0000 0.0000
16:52 16.2 9.2 63 244 1.4 4.4 1025.4 0.0000 0.0000
17:03 16.2 9.2 63 246 2.2 5 1025.4 0.0000 0.0000
17:13 16.2 8.9 62 249 1.4 4.7 1025.5 0.0000 0.0000
17:23 16.1 9.1 63 246 1.4 3.6 1025.5 0.0000 0.0000
17:33 16.1 9.3 64 238 1.7 4.7 1025.4 0.0000 0.0000
17:43 16.3 9.5 64 250 1.9 4.7 1025.3 0.0000 0.0000
17:53 16.3 10.4 68 244 1.7 4.4 1025.3 0.0000 0.0000
18:03 16.3 9.7 65 240 2.2 6.1 1025.3 0.0000 0.0000
18:18 16.2 9.6 65 246 1.9 6.9 1025.3 0.0000 0.0000
18:28 16.2 9.6 65 251 1.7 4.4 1025.2 0.0000 0.0000
18:38 16.3 9.5 64 249 1.9 4.4 1025.3 0.0000 0.0000
18:48 16.3 9.3 63 247 2.8 6.9 1025.2 0.0000 0.0000
18:58 16.2 8.9 62 243 2.5 4.2 1025.2 0.0000 0.0000
19:08 16.2 9.4 64 250 1.7 4.2 1025 0.0000 0.0000
19:19 16.2 9.4 64 243 1.9 5 1025.1 0.0000 0.0000

DAY STATISTIC

2018-06-23
TEMPERATURE
AVERAGE
13.9
HIGH
17.1
14:19
LOW
11.9
03:52
PRESSURE
AVERAGE
1026.0
HIGH
1026.5
02:12
LOW
1025.0
19:08
DEWPOINT
AVERAGE
8.4
HIGH
10.4
17:53
LOW
7.0
03:52
HUMIDITY
AVERAGE
70
HIGH
78
10:17
LOW
58
14:08
WIND SPEED
AVERAGE
1.4
HIGH
2.8
18:48
WIND GUST
AVERAGE
3.7
HIGH
6.9
18:18
WIND DIRECTION
PREVAILING
SW
89.5%
N
0.0
NE
0.0
E
0.0
SE
0.0
S
0.9
SW
89.5
W
9.6
NW
0.0
PRECIPITATION
RAIN HOUR
0.0
RAIN DAY
0.0
TEMPERATURE (°C)
LOW
11.9
HIGH
17.1
AVERAGE
13.9
PRESSURE (hpa)
LOW
1025.0
HIGH
1026.5
AVERAGE
1026.0
DEVICE